Arlington, Nebraska
Current Conditions -  °F | °C
As of 7:55 AM on Friday 24 Oct 2014 (Local Time) from KFET Reporting Station
Haze Haze  
Wind Chill: 16°   Ceiling: Unl
Heat Index: 16°   Visibility: 5mi
Dew Point: 14°   Wind: 8mph
Humidity: 91%   Direction: 190°S
Pressure: 29.91"   Gusts: NA
Location:  41.45°N, 96.35°W
Report Text: KFET 241255Z AUTO 19007KT 5SM BR CLR 16/14 A2991 RMK AO2 T01560141
Loading
Personal Weather Stations






























Interactive Weather Map
Tropical Storm Tracking
New forecast layout! Learn more

10-Day Weather Forecast

Advertisements
Track Severe Weather on mobile